Terminal Aerodrome Forecast
Issued by NWS

Home | Current Version | Previous Version | Graphics & Text | Print | Product List | Glossary On
Versions: 1 2 3 4 5 6 7 8 9 10 11 12 13 14 15 16 17 18 19 20 21
000
FTUS43 KMPX 270827 AAA
TAFRWF
TAF AMD
KRWF 270827Z 2708/2806 12003KT P6SM SCT250
      TEMPO 2708/2712 2SM BR
     FM271500 31004KT P6SM FEW050 BKN250
     FM280300 20006KT P6SM VCTS SCT050CB BKN120
      TEMPO 2804/2806 4SM SHRA OVC050=

USA.gov is the U.S. government's official web portal to all federal, state and local government web resources and services.